Time;durP1;ratioP1;P1;durP2;ratioP2;P2;SDS_P1;SDS_P2;PMS_P1;PMS_P2;Temp;Humidity;BMP_temperature;BMP_pressure;BME280_temperature;BME280_humidity;BME280_pressure;Samples;Min_cycle;Max_cycle;Signal;HPM_P1;HPM_P2
2022/06/10 00:00:29;;;;;;;9.95;3.88;;;;;;;13.31;81.90;101884.47;5261894;28;20288;-82
2022/06/10 00:03:01;;;;;;;26.05;4.10;;;;;;;13.19;81.71;101888.06;5261613;28;20979;-85
2022/06/10 00:05:36;;;;;;;13.60;4.43;;;;;;;13.16;81.98;101892.44;5260923;28;20529;-85
2022/06/10 00:08:11;;;;;;;14.57;4.63;;;;;;;13.29;82.09;101881.00;5259805;28;20036;-85
2022/06/10 00:10:45;;;;;;;15.73;3.72;;;;;;;13.30;82.42;101886.25;5260475;28;20089;-85
2022/06/10 00:13:19;;;;;;;13.90;3.55;;;;;;;13.30;82.19;101886.25;5259660;28;20111;-81
2022/06/10 00:15:53;;;;;;;12.52;3.58;;;;;;;13.20;83.24;101881.06;5260105;28;20394;-87
2022/06/10 00:18:27;;;;;;;13.43;4.30;;;;;;;13.06;83.08;101887.25;5259312;28;20116;-84
2022/06/10 00:21:00;;;;;;;13.15;3.88;;;;;;;13.13;83.62;101886.34;5258317;28;20148;-85
2022/06/10 00:23:31;;;;;;;9.82;4.13;;;;;;;13.16;84.60;101890.69;5260139;28;20086;-86
2022/06/10 00:26:04;;;;;;;16.73;4.50;;;;;;;13.37;84.19;101886.25;5260640;28;20036;-83
2022/06/10 00:28:37;;;;;;;18.00;4.13;;;;;;;13.11;83.62;101887.25;5260204;28;20428;-82
2022/06/10 00:31:09;;;;;;;12.15;4.50;;;;;;;13.11;83.02;101876.75;5259168;28;20037;-85
2022/06/10 00:33:40;;;;;;;8.67;3.30;;;;;;;13.30;83.65;101888.00;5259197;28;20032;-87
2022/06/10 00:36:12;;;;;;;11.80;4.10;;;;;;;13.18;83.27;101885.44;5258562;28;20105;-86
2022/06/10 00:38:43;;;;;;;12.70;3.30;;;;;;;13.17;83.16;101881.06;5260110;28;20029;-85
2022/06/10 00:41:15;;;;;;;16.13;4.17;;;;;;;13.22;83.36;101876.72;5260135;28;20032;-85
2022/06/10 00:43:47;;;;;;;11.87;4.27;;;;;;;13.12;83.39;101876.75;5259359;28;20029;-87
2022/06/10 00:46:34;;;;;;;13.82;3.80;;;;;;;13.27;82.85;101882.78;5258275;28;20063;-86
2022/06/10 00:49:08;;;;;;;12.30;4.15;;;;;;;13.24;83.02;101881.03;5260109;28;20021;-84
2022/06/10 00:51:51;;;;;;;12.02;3.88;;;;;;;13.32;82.41;101884.50;5261027;28;20035;-85
2022/06/10 00:54:32;;;;;;;15.45;4.15;;;;;;;13.41;83.00;101883.59;5258240;28;20021;-83
2022/06/10 00:57:09;;;;;;;11.20;3.95;;;;;;;13.49;82.12;101880.91;5258141;28;20036;-86
2022/06/10 00:59:45;;;;;;;10.55;4.13;;;;;;;13.58;82.30;101872.13;5258096;28;20119;-84
2022/06/10 01:02:21;;;;;;;8.95;3.45;;;;;;;13.75;81.58;101872.84;5259981;28;20025;-86
2022/06/10 01:04:55;;;;;;;13.18;4.20;;;;;;;13.78;81.21;101871.94;5259330;28;20391;-87
2022/06/10 01:07:32;;;;;;;15.13;3.97;;;;;;;13.68;80.58;101877.28;5259866;28;20090;-87
2022/06/10 01:10:06;;;;;;;14.02;4.00;;;;;;;13.86;80.43;101873.63;5258985;28;20466;-86
2022/06/10 01:13:21;;;;;;;10.70;3.20;;;;;;;13.77;80.12;101876.31;5259208;28;20059;-86
2022/06/10 01:15:58;;;;;;;12.35;3.75;;;;;;;13.77;80.17;101886.81;5258349;28;20542;-86
2022/06/10 01:18:48;;;;;;;15.23;3.80;;;;;;;13.90;79.95;101879.69;5258402;28;20394;-86
2022/06/10 01:21:44;;;;;;;12.00;3.20;;;;;;;13.88;79.82;101883.19;5258159;28;20130;-85
2022/06/10 01:24:45;;;;;;;13.35;3.70;;;;;;;13.88;79.97;101877.97;5258234;28;20060;-83
2022/06/10 01:27:49;;;;;;;16.67;3.65;;;;;;;13.85;79.86;101869.25;5258378;28;20390;-86
2022/06/10 01:30:49;;;;;;;12.57;3.63;;;;;;;13.88;79.21;101872.72;5258816;28;20033;-86
2022/06/10 01:34:12;;;;;;;9.82;3.45;;;;;;;13.89;79.50;101879.72;5234953;28;20045;-86
2022/06/10 01:36:53;;;;;;;8.67;2.87;;;;;;;13.85;79.53;101876.25;5155632;29;20051;-88
2022/06/10 01:39:45;;;;;;;11.55;3.75;;;;;;;13.82;78.98;101876.28;5156004;28;20047;-84
2022/06/10 01:42:31;;;;;;;12.17;3.30;;;;;;;13.76;78.94;101876.31;5155389;29;20038;-85
2022/06/10 01:45:58;;;;;;;13.57;3.47;;;;;;;13.83;79.07;101873.66;5160240;28;20295;-82
2022/06/10 01:48:55;;;;;;;6.97;2.60;;;;;;;13.86;78.91;101881.50;5134647;29;20028;-84
2022/06/10 01:51:32;;;;;;;11.40;3.40;;;;;;;13.74;79.32;101886.81;5116909;29;20052;-87
2022/06/10 01:54:13;;;;;;;14.98;3.47;;;;;;;13.75;79.40;101885.94;5114532;29;20047;-86
2022/06/10 01:56:48;;;;;;;10.77;3.30;;;;;;;13.74;79.57;101884.19;5115297;29;20040;-85
2022/06/10 01:59:28;;;;;;;10.85;4.25;;;;;;;13.69;79.26;101878.13;5115223;29;20040;-86
2022/06/10 02:02:05;;;;;;;12.25;3.92;;;;;;;13.74;80.20;101884.19;5113588;29;20047;-81
2022/06/10 02:04:44;;;;;;;9.15;3.25;;;;;;;13.74;79.34;101868.47;5113839;29;20056;-86
2022/06/10 02:07:33;;;;;;;8.60;3.08;;;;;;;13.77;79.11;101881.56;5114207;29;20620;-85
2022/06/10 02:10:16;;;;;;;14.50;3.40;;;;;;;13.77;79.32;101884.19;5103508;29;20538;-84
2022/06/10 02:12:54;;;;;;;14.90;3.55;;;;;;;13.88;79.87;101883.19;5134962;29;20070;-85
2022/06/10 02:15:40;;;;;;;13.75;3.55;;;;;;;13.81;79.53;101887.63;5152835;29;20106;-84
2022/06/10 02:18:30;;;;;;;15.05;3.03;;;;;;;13.81;79.67;101878.03;5153492;29;20358;-87
2022/06/10 02:21:07;;;;;;;13.75;3.80;;;;;;;13.86;79.73;101875.34;5154238;29;20549;-89
2022/06/10 02:23:43;;;;;;;12.98;2.88;;;;;;;13.85;79.36;101876.25;5156185;28;20106;-81
2022/06/10 02:26:15;;;;;;;9.63;2.53;;;;;;;13.83;79.11;101880.66;5257567;28;20052;-86
2022/06/10 02:28:51;;;;;;;15.67;3.30;;;;;;;13.89;79.30;101877.94;5258591;28;20033;-87
2022/06/10 02:31:32;;;;;;;10.13;3.22;;;;;;;13.82;79.63;101885.00;5258735;28;20025;-86
2022/06/10 02:34:05;;;;;;;12.00;3.75;;;;;;;13.79;79.45;101895.50;5260024;28;20094;-88
2022/06/10 02:37:00;;;;;;;9.18;2.83;;;;;;;13.82;79.86;101894.63;5259259;28;20100;-83
2022/06/10 02:39:45;;;;;;;12.07;3.38;;;;;;;13.84;79.70;101898.94;5259249;28;20504;-89
2022/06/10 02:42:30;;;;;;;10.02;3.13;;;;;;;13.91;79.33;101897.19;5259801;28;20029;-83
2022/06/10 02:45:14;;;;;;;12.77;3.20;;;;;;;13.91;79.66;101893.66;5261045;28;20024;-86
2022/06/10 02:47:54;;;;;;;12.73;4.07;;;;;;;13.91;79.49;101902.41;5265979;28;20033;-81
2022/06/10 02:50:26;;;;;;;13.30;3.08;;;;;;;13.85;79.48;101905.09;5263881;28;20077;-84
2022/06/10 02:52:58;;;;;;;9.47;3.97;;;;;;;13.92;80.09;101903.28;5264931;28;20068;-91
2022/06/10 02:55:30;;;;;;;13.25;3.92;;;;;;;13.86;79.82;101902.44;5258779;28;20351;-84
2022/06/10 03:01:20;;;;;;;9.48;3.28;;;;;;;13.97;80.86;101898.84;5241544;28;20124;-88
2022/06/10 03:04:21;;;;;;;12.13;3.70;;;;;;;13.96;80.60;101894.47;5197720;28;20122;-87
2022/06/10 03:07:14;;;;;;;10.95;3.05;;;;;;;13.98;80.09;101900.59;5198189;28;20132;-82
2022/06/10 03:10:01;;;;;;;18.88;4.10;;;;;;;14.05;80.50;101910.13;5198014;28;20108;-85
2022/06/10 03:12:54;;;;;;;13.13;3.83;;;;;;;13.99;80.68;101905.84;5198256;28;20050;-85
2022/06/10 03:15:31;;;;;;;10.75;3.45;;;;;;;13.94;80.54;101904.13;5198684;28;20046;-82
2022/06/10 03:18:14;;;;;;;11.95;3.25;;;;;;;13.97;81.14;101911.97;5198721;28;20068;-87
2022/06/10 03:21:05;;;;;;;;;;;;;;;14.10;79.76;101910.09;5198398;28;20097;-86
2022/06/10 03:24:01;;;;;;;16.30;4.13;;;;;;;13.97;80.28;101915.44;5197297;28;20370;-86
2022/06/10 03:26:42;;;;;;;11.30;4.03;;;;;;;13.94;80.82;101918.13;5196818;28;20061;-86
2022/06/10 03:29:22;;;;;;;10.00;3.75;;;;;;;13.94;80.99;101919.84;5196778;28;20121;-85
2022/06/10 03:32:06;;;;;;;10.65;3.47;;;;;;;13.96;80.96;101923.31;5196864;28;20038;-85
2022/06/10 03:34:42;;;;;;;9.73;3.08;;;;;;;13.99;80.95;101928.53;5195822;28;20177;-79
2022/06/10 03:37:19;;;;;;;19.42;4.22;;;;;;;13.97;81.38;101925.06;5200000;28;20038;-81
2022/06/10 03:39:56;;;;;;;12.55;3.83;;;;;;;13.97;80.68;101931.16;5210995;28;20526;-79
2022/06/10 03:42:27;;;;;;;11.55;3.03;;;;;;;13.94;80.97;101932.97;5262579;28;20048;-81
2022/06/10 03:44:59;;;;;;;10.47;2.77;;;;;;;13.98;81.51;101921.56;5264843;28;20057;-86
2022/06/10 03:47:33;;;;;;;10.82;3.08;;;;;;;14.01;81.21;101913.69;5260976;28;20092;-78
2022/06/10 03:50:08;;;;;;;15.38;4.93;;;;;;;14.01;82.16;101905.81;5262356;28;20474;-82
2022/06/10 03:52:41;;;;;;;11.63;3.08;;;;;;;14.06;82.41;101913.66;5261312;28;20029;-78
2022/06/10 03:55:19;;;;;;;12.93;3.55;;;;;;;13.99;81.50;101913.69;5261396;28;20025;-82
2022/06/10 03:57:50;;;;;;;14.60;4.25;;;;;;;14.04;81.54;101913.66;5261239;28;20037;-86
2022/06/10 04:00:25;;;;;;;12.73;3.03;;;;;;;14.04;81.82;101924.16;5260816;28;20116;-81
2022/06/10 04:02:57;;;;;;;11.93;3.10;;;;;;;14.02;81.67;101928.50;5260674;28;20025;-87
2022/06/10 04:05:28;;;;;;;8.23;3.07;;;;;;;14.10;82.12;101924.06;5258967;28;20049;-78
2022/06/10 04:08:00;;;;;;;12.57;3.60;;;;;;;14.07;82.34;101926.75;5260762;28;20017;-80
2022/06/10 04:10:31;;;;;;;11.60;3.70;;;;;;;14.03;82.40;101940.75;5259832;28;20082;-80
2022/06/10 04:13:02;;;;;;;13.57;3.80;;;;;;;14.11;83.30;101928.44;5263955;28;20033;-78
2022/06/10 04:15:34;;;;;;;11.67;2.90;;;;;;;14.09;82.81;101938.09;5259679;28;20025;-86
2022/06/10 04:18:05;;;;;;;10.77;2.90;;;;;;;14.14;82.81;101941.53;5259017;28;20025;-80
2022/06/10 04:20:38;;;;;;;12.50;3.23;;;;;;;14.23;83.27;101936.19;5259263;28;20028;-82
2022/06/10 04:23:10;;;;;;;;;;;;;;;14.32;81.78;101939.63;5260602;28;20021;-77
2022/06/10 04:25:44;;;;;;;12.30;3.25;;;;;;;14.29;84.26;101947.50;5260304;28;19917;-85
2022/06/10 04:28:15;;;;;;;16.73;5.40;;;;;;;14.31;83.64;101940.50;5261628;28;20131;-83
2022/06/10 04:30:49;;;;;;;16.33;4.47;;;;;;;14.39;84.15;101946.53;5258438;28;20029;-77
2022/06/10 04:33:21;;;;;;;11.50;3.38;;;;;;;14.36;83.52;101943.94;5260048;28;20066;-81
2022/06/10 04:35:52;;;;;;;14.10;3.43;;;;;;;14.42;84.09;101938.63;5261709;28;20028;-86
2022/06/10 04:38:24;;;;;;;12.73;3.70;;;;;;;14.40;84.01;101940.41;5261364;28;20025;-84
2022/06/10 04:40:55;;;;;;;10.17;3.00;;;;;;;14.43;85.09;101942.13;5260040;28;20072;-77
2022/06/10 04:43:27;;;;;;;9.00;2.90;;;;;;;14.41;84.63;101942.16;5261801;28;20115;-84
2022/06/10 04:46:01;;;;;;;9.32;3.05;;;;;;;14.45;84.19;101937.75;5262878;28;20021;-83
2022/06/10 04:48:33;;;;;;;11.02;3.92;;;;;;;14.41;84.55;101953.50;5270609;28;20033;-79
2022/06/10 04:51:04;;;;;;;13.57;4.05;;;;;;;14.45;84.68;101946.47;5271793;28;20025;-85
2022/06/10 04:53:36;;;;;;;12.90;3.30;;;;;;;14.46;83.64;101947.31;5260261;28;20059;-81
2022/06/10 04:56:07;;;;;;;14.47;3.83;;;;;;;14.46;83.96;101947.31;5259534;28;20028;-84
2022/06/10 04:58:39;;;;;;;14.87;3.80;;;;;;;14.43;83.45;101950.88;5260782;28;20036;-78
2022/06/10 05:01:11;;;;;;;12.20;3.75;;;;;;;14.49;83.96;101950.81;5259425;28;20036;-81
2022/06/10 05:03:42;;;;;;;13.73;3.97;;;;;;;14.49;84.05;101947.28;5259717;28;20044;-87
2022/06/10 05:06:14;;;;;;;8.77;3.63;;;;;;;14.50;83.27;101942.03;5259460;28;20067;-78
2022/06/10 05:08:46;;;;;;;14.27;4.38;;;;;;;14.55;83.13;101945.50;5252344;28;20137;-81
2022/06/10 05:11:17;;;;;;;14.37;4.00;;;;;;;14.60;83.10;101937.59;5248904;28;20067;-77
2022/06/10 05:13:49;;;;;;;11.87;4.20;;;;;;;14.62;82.33;101935.84;5254342;28;20036;-78
2022/06/10 05:16:20;;;;;;;12.13;3.67;;;;;;;14.68;82.35;101943.66;5255054;28;20112;-77
2022/06/10 05:18:53;;;;;;;11.60;4.50;;;;;;;14.78;81.80;101936.53;5254991;28;20032;-81
2022/06/10 05:21:24;;;;;;;11.95;3.33;;;;;;;14.76;81.28;101939.16;5254708;28;20035;-79
2022/06/10 05:23:56;;;;;;;17.33;4.80;;;;;;;14.82;82.16;101930.34;5254545;28;20474;-77
2022/06/10 05:26:29;;;;;;;12.18;4.07;;;;;;;14.85;81.78;101926.81;5253967;28;20148;-77
2022/06/10 05:29:00;;;;;;;14.10;3.70;;;;;;;14.91;82.03;101932.00;5253417;28;20764;-81
2022/06/10 05:31:32;;;;;;;20.40;4.27;;;;;;;15.00;81.39;101925.75;5254449;28;20033;-77
2022/06/10 05:36:53;;;;;;;15.73;4.13;;;;;;;15.20;81.08;101933.34;5254551;28;20032;-82
2022/06/10 05:39:25;;;;;;;14.33;4.30;;;;;;;15.31;80.62;101927.06;5253744;28;20037;-80
2022/06/10 05:42:05;;;;;;;15.90;3.23;;;;;;;15.41;80.26;101929.56;5253225;28;20025;-79
2022/06/10 05:44:42;;;;;;;15.57;3.20;;;;;;;15.46;79.72;101935.63;5248894;28;20041;-77
2022/06/10 05:47:19;;;;;;;9.15;2.95;;;;;;;15.49;80.01;101931.19;5252966;28;20082;-80
2022/06/10 05:49:53;;;;;;;9.18;3.40;;;;;;;15.55;79.96;101930.22;5268650;28;20029;-82
2022/06/10 05:52:30;;;;;;;10.43;3.00;;;;;;;15.64;80.15;101930.06;5253388;28;20029;-79
2022/06/10 05:55:05;;;;;;;10.18;2.85;;;;;;;15.79;79.48;101933.38;5253860;28;20143;-80
2022/06/10 05:57:38;;;;;;;11.02;2.63;;;;;;;15.87;79.33;101931.50;5252891;28;20033;-81
2022/06/10 06:00:15;;;;;;;11.80;3.67;;;;;;;15.95;78.88;101931.38;5244568;28;20035;-80
2022/06/10 06:02:46;;;;;;;12.07;3.25;;;;;;;16.06;78.16;101931.19;5264014;28;20120;-79
2022/06/10 06:05:20;;;;;;;9.37;3.97;;;;;;;16.09;77.41;101926.75;5246212;28;20049;-78
2022/06/10 06:07:52;;;;;;;10.23;3.63;;;;;;;16.15;78.24;101931.06;5254457;28;20719;-76
2022/06/10 06:10:26;;;;;;;15.37;4.47;;;;;;;16.22;77.86;101928.25;5254159;28;20116;-83
2022/06/10 06:12:57;;;;;;;9.93;3.22;;;;;;;16.28;76.70;101932.56;5252829;28;20033;-80
2022/06/10 06:15:29;;;;;;;9.53;2.40;;;;;;;16.36;75.96;101933.28;5252492;28;20024;-77
2022/06/10 06:18:00;;;;;;;7.80;2.83;;;;;;;16.45;76.11;101936.63;5254224;28;21082;-81
2022/06/10 06:20:32;;;;;;;9.67;3.13;;;;;;;16.49;75.38;101941.81;5254213;28;20042;-79
2022/06/10 06:23:04;;;;;;;9.53;3.17;;;;;;;16.55;75.41;101940.81;5256210;28;20029;-78
2022/06/10 06:25:36;;;;;;;12.88;2.78;;;;;;;16.53;75.09;101942.63;5250208;28;20484;-78
2022/06/10 06:28:07;;;;;;;9.83;2.40;;;;;;;16.54;75.06;101945.22;5243398;28;20021;-78
2022/06/10 06:30:39;;;;;;;9.23;3.10;;;;;;;16.55;75.92;101943.44;5250586;28;20135;-80
2022/06/10 06:33:10;;;;;;;9.00;2.73;;;;;;;16.58;75.54;101951.28;5253665;28;20017;-79
2022/06/10 06:35:47;;;;;;;10.40;3.27;;;;;;;16.59;75.06;101959.16;5257936;28;20043;-79
2022/06/10 06:38:21;;;;;;;7.53;3.17;;;;;;;16.61;75.86;101956.50;5250759;28;20028;-79
2022/06/10 06:40:52;;;;;;;13.65;2.55;;;;;;;16.66;75.45;101952.00;5250164;28;20028;-80
2022/06/10 06:43:24;;;;;;;13.93;3.27;;;;;;;16.80;75.31;101958.78;5248638;28;20033;-79
2022/06/10 06:45:55;;;;;;;9.10;2.80;;;;;;;16.85;74.08;101960.44;5252671;28;20108;-78
2022/06/10 06:48:26;;;;;;;6.83;2.50;;;;;;;16.90;74.32;101966.47;5241556;28;20029;-80
2022/06/10 06:50:58;;;;;;;10.70;2.63;;;;;;;16.90;73.41;101963.84;5250719;28;20108;-78
2022/06/10 06:53:29;;;;;;;7.90;2.53;;;;;;;16.96;74.22;101970.75;5253614;28;20035;-77
2022/06/10 06:56:02;;;;;;;10.67;2.40;;;;;;;17.01;74.29;101975.94;5253472;28;20140;-76
2022/06/10 06:58:34;;;;;;;6.25;2.20;;;;;;;17.06;73.17;101969.66;5255789;28;20025;-79
2022/06/10 07:01:05;;;;;;;8.07;2.77;;;;;;;17.09;73.15;101969.59;5253380;28;20081;-80
2022/06/10 07:03:36;;;;;;;15.40;3.40;;;;;;;17.19;72.38;101978.16;5253482;28;20124;-79
2022/06/10 07:06:08;;;;;;;13.27;2.43;;;;;;;17.24;72.11;101975.44;5253579;28;20489;-78
2022/06/10 07:08:39;;;;;;;5.57;2.53;;;;;;;17.21;72.03;101978.13;5252705;28;20040;-81
2022/06/10 07:13:53;;;;;;;10.65;2.63;;;;;;;17.31;71.11;101963.88;5261259;22;20266;-79
2022/06/10 07:16:25;;;;;;;15.10;2.58;;;;;;;17.47;71.14;101967.91;5189839;28;20406;-78
2022/06/10 07:18:57;;;;;;;11.80;3.28;;;;;;;17.60;71.00;101965.84;5189131;28;20038;-80
2022/06/10 07:21:28;;;;;;;7.83;2.10;;;;;;;17.67;69.36;101963.94;5189742;28;20030;-78
2022/06/10 07:24:00;;;;;;;8.43;2.33;;;;;;;17.72;69.09;101971.72;5188918;28;20023;-77
2022/06/10 07:26:32;;;;;;;9.15;2.50;;;;;;;17.92;69.50;101974.81;5189218;28;20079;-78
2022/06/10 07:29:03;;;;;;;11.40;2.33;;;;;;;17.94;69.78;101980.03;5189239;28;20033;-79
2022/06/10 07:31:36;;;;;;;8.03;2.60;;;;;;;17.90;69.13;101983.63;5190517;28;20546;-78
2022/06/10 07:34:08;;;;;;;6.28;2.50;;;;;;;17.82;69.54;101981.16;5189401;28;20129;-83
2022/06/10 07:36:40;;;;;;;8.93;2.20;;;;;;;17.67;69.83;101977.13;5189172;28;20475;-85
2022/06/10 07:39:11;;;;;;;7.47;2.40;;;;;;;17.63;71.03;101976.31;5189641;28;20092;-79
2022/06/10 07:42:00;;;;;;;7.47;2.13;;;;;;;17.66;70.70;101978.91;5188790;28;20479;-79
2022/06/10 07:44:35;;;;;;;8.43;2.65;;;;;;;17.68;71.95;101976.22;5189319;28;20296;-78
2022/06/10 07:47:11;;;;;;;9.50;2.95;;;;;;;17.68;71.57;101984.13;5191709;28;20038;-80
2022/06/10 07:49:42;;;;;;;5.43;1.90;;;;;;;17.71;70.76;101976.16;5192327;28;20102;-79
2022/06/10 07:52:15;;;;;;;7.27;2.20;;;;;;;17.68;70.37;101968.31;5182789;28;20122;-78
2022/06/10 07:54:46;;;;;;;8.25;2.47;;;;;;;17.72;70.32;101975.22;5257020;28;20069;-79
2022/06/10 07:57:18;;;;;;;7.70;2.03;;;;;;;17.88;70.41;101967.00;5195445;28;20050;-80
2022/06/10 07:59:51;;;;;;;10.80;2.23;;;;;;;18.17;68.83;101964.47;5194085;28;20628;-79
2022/06/10 08:02:24;;;;;;;10.02;2.20;;;;;;;18.33;67.53;101972.00;5191910;28;20037;-82
2022/06/10 08:04:55;;;;;;;5.75;2.33;;;;;;;18.70;67.71;101969.22;5191600;28;20159;-79
2022/06/10 08:07:27;;;;;;;7.53;1.97;;;;;;;18.90;65.88;101966.06;5182565;28;20479;-80
2022/06/10 08:09:58;;;;;;;5.73;1.93;;;;;;;19.10;64.20;101976.03;5202237;28;20034;-82
2022/06/10 08:12:30;;;;;;;7.50;2.10;;;;;;;19.17;63.96;101976.72;5192182;28;20072;-77
2022/06/10 08:15:01;;;;;;;6.23;2.13;;;;;;;19.21;64.10;101977.50;5191581;28;20308;-80
2022/06/10 08:17:33;;;;;;;8.65;2.97;;;;;;;19.37;64.79;101977.88;5192037;28;20069;-81
2022/06/10 08:20:05;;;;;;;7.47;2.13;;;;;;;19.44;63.25;101980.31;5191098;28;20638;-80
2022/06/10 08:22:37;;;;;;;6.10;2.05;;;;;;;19.53;61.63;101984.47;5190294;28;20109;-76
2022/06/10 08:25:10;;;;;;;10.33;2.77;;;;;;;19.46;62.55;101982.91;5192098;28;20026;-79
2022/06/10 08:27:43;;;;;;;9.57;2.40;;;;;;;19.59;61.97;101978.09;5186332;28;20133;-81
2022/06/10 08:30:16;;;;;;;7.78;2.42;;;;;;;19.43;62.01;101983.00;5187520;28;20034;-82
2022/06/10 08:32:47;;;;;;;12.32;3.22;;;;;;;19.38;61.65;101982.28;5245987;28;20059;-78
2022/06/10 08:35:18;;;;;;;8.93;2.93;;;;;;;19.22;61.55;101990.66;5191828;28;20089;-78
2022/06/10 08:37:50;;;;;;;7.93;2.63;;;;;;;19.02;63.55;101985.13;5181793;28;20132;-83
2022/06/10 08:40:32;;;;;;;9.15;2.88;;;;;;;18.91;61.72;101995.97;5192794;28;20034;-88
2022/06/10 08:43:14;;;;;;;11.93;3.53;;;;;;;19.05;62.38;101977.97;5186067;28;20147;-82
2022/06/10 08:46:10;;;;;;;14.50;3.33;;;;;;;19.17;62.72;101976.72;5192436;28;20109;-78
2022/06/10 08:49:12;;;;;;;13.50;3.17;;;;;;;19.43;61.35;101968.00;5246751;28;20044;-82
2022/06/10 08:51:55;;;;;;;12.05;3.35;;;;;;;19.54;62.77;101961.50;5245297;28;20099;-81
2022/06/10 08:54:38;;;;;;;10.20;3.97;;;;;;;19.62;61.27;101968.28;5191453;28;21043;-80
2022/06/10 08:57:37;;;;;;;16.98;3.88;;;;;;;19.91;61.31;101970.94;5197471;23;20664;-80
2022/06/10 09:00:36;;;;;;;12.80;3.90;;;;;;;20.05;60.93;101966.03;5194807;28;20065;-79
2022/06/10 09:03:29;;;;;;;9.10;3.63;;;;;;;20.07;59.78;101955.41;5176321;28;20594;-83
2022/06/10 09:06:04;;;;;;;10.68;4.88;;;;;;;20.26;59.45;101959.16;5191413;28;20680;-80
2022/06/10 09:08:41;;;;;;;11.32;2.92;;;;;;;20.18;58.63;101963.84;5192922;28;20094;-87
2022/06/10 09:11:27;;;;;;;10.77;4.43;;;;;;;20.36;59.75;101960.53;5196229;28;20089;-86
2022/06/10 09:14:10;;;;;;;10.68;3.72;;;;;;;20.54;59.02;101966.09;5193677;28;20047;-84
2022/06/10 09:16:58;;;;;;;10.75;2.95;;;;;;;20.55;59.80;101966.06;5191401;28;20151;-81
2022/06/10 09:19:55;;;;;;;12.73;3.55;;;;;;;20.58;59.22;101959.78;5192975;28;20038;-80
2022/06/10 09:22:48;;;;;;;15.13;3.05;;;;;;;20.43;60.55;101966.50;5190876;28;20046;-80
2022/06/10 09:25:32;;;;;;;;;;;;;;;20.53;59.00;101959.97;5175994;28;20439;-84
2022/06/10 09:28:03;;;;;;;10.18;3.05;;;;;;;20.66;59.95;101959.56;5197436;28;19917;-79
2022/06/10 09:30:56;;;;;;;11.83;3.13;;;;;;;21.07;58.67;101971.25;5192006;28;20057;-82
2022/06/10 09:34:10;;;;;;;13.40;2.90;;;;;;;21.41;57.86;101972.59;5175948;28;20184;-80
2022/06/10 09:36:54;;;;;;;11.07;3.28;;;;;;;21.46;57.12;101970.63;5178311;28;20039;-79
2022/06/10 09:42:59;;;;;;;9.60;2.90;;;;;;;22.33;56.56;101970.66;5190365;28;20228;-82
2022/06/10 09:46:00;;;;;;;12.05;3.10;;;;;;;22.25;55.50;101972.75;5178290;28;20053;-81
2022/06/10 09:48:51;;;;;;;9.32;3.03;;;;;;;22.15;55.37;101980.25;5198435;28;20127;-81
2022/06/10 09:51:45;;;;;;;12.07;3.42;;;;;;;22.03;55.49;101992.22;5186963;28;20026;-81
2022/06/10 09:54:32;;;;;;;11.73;3.22;;;;;;;21.71;56.24;101982.09;5188182;28;20041;-82
2022/06/10 09:57:47;;;;;;;12.45;4.10;;;;;;;21.91;57.19;101975.94;5189986;28;20150;-83
2022/06/10 10:00:33;;;;;;;8.68;3.20;;;;;;;22.18;57.43;101971.25;5191330;28;20034;-82
2022/06/10 10:03:17;;;;;;;10.57;3.28;;;;;;;22.44;55.49;101980.78;5188820;28;20030;-83
2022/06/10 10:06:10;;;;;;;9.13;3.53;;;;;;;23.05;54.86;101976.28;5190944;28;20475;-83
2022/06/10 10:09:02;;;;;;;10.93;3.60;;;;;;;23.55;53.32;101974.84;5258784;28;20057;-81
2022/06/10 10:11:59;;;;;;;11.13;3.55;;;;;;;24.11;54.34;101978.34;5227812;28;20031;-81
2022/06/10 10:14:48;;;;;;;13.43;3.88;;;;;;;24.02;51.89;101988.50;5189620;28;20085;-83
2022/06/10 10:17:28;;;;;;;16.55;3.70;;;;;;;22.92;52.53;101984.81;5182853;28;20042;-88
2022/06/10 10:20:23;;;;;;;11.52;3.65;;;;;;;23.03;54.01;101972.84;5187081;28;20035;-83
2022/06/10 10:23:17;;;;;;;12.90;3.45;;;;;;;22.71;54.62;101972.53;5181254;28;20114;-80
2022/06/10 10:25:49;;;;;;;9.40;3.08;;;;;;;22.55;56.00;101975.00;5178243;28;20030;-78
2022/06/10 10:28:25;;;;;;;14.63;4.05;;;;;;;22.61;54.67;101984.50;5257541;28;20069;-82
2022/06/10 10:31:20;;;;;;;13.43;3.85;;;;;;;22.40;54.45;101976.56;5184609;28;20114;-78
2022/06/10 10:33:52;;;;;;;17.08;4.10;;;;;;;22.28;54.32;101985.00;5182677;28;20041;-78
2022/06/10 10:36:46;;;;;;;10.57;3.25;;;;;;;22.58;57.31;101966.91;5239965;28;20046;-88
2022/06/10 10:39:36;;;;;;;10.65;3.70;;;;;;;22.81;55.12;101971.16;5191073;28;20756;-77
2022/06/10 10:42:18;;;;;;;13.13;3.78;;;;;;;24.23;50.95;101969.72;5196672;28;20037;-80
2022/06/10 10:45:03;;;;;;;7.32;3.20;;;;;;;24.68;50.79;101962.06;5192717;28;20041;-79
2022/06/10 10:47:37;;;;;;;9.68;3.60;;;;;;;25.28;48.08;101969.50;5188523;28;20069;-83
2022/06/10 10:50:22;;;;;;;11.93;3.42;;;;;;;24.12;49.96;101964.09;5172090;28;20031;-80
2022/06/10 10:52:53;;;;;;;11.30;4.13;;;;;;;23.73;50.56;101958.00;5198895;28;20033;-86
2022/06/10 10:55:34;;;;;;;11.60;3.55;;;;;;;23.96;51.95;101964.00;5209205;28;20031;-80
2022/06/10 10:58:20;;;;;;;12.82;4.25;;;;;;;23.35;52.65;101965.19;5191694;28;20042;-86
2022/06/10 11:01:03;;;;;;;9.27;3.58;;;;;;;22.50;54.28;101964.56;5196445;28;20045;-80
2022/06/10 11:03:47;;;;;;;13.35;3.70;;;;;;;22.94;54.03;101956.41;5212711;28;20061;-79
2022/06/10 11:06:30;;;;;;;9.23;3.60;;;;;;;23.07;53.67;101953.16;5212377;28;20030;-81
2022/06/10 11:09:13;;;;;;;10.48;4.57;;;;;;;23.36;54.17;101961.56;5198575;28;20026;-83
2022/06/10 11:11:46;;;;;;;8.82;3.88;;;;;;;23.75;53.03;101952.59;5194578;28;20031;-83
2022/06/10 11:14:38;;;;;;;13.50;3.70;;;;;;;23.89;51.95;101950.09;5196734;23;20078;-78
2022/06/10 11:17:11;;;;;;;17.90;5.50;;;;;;;24.83;50.11;101960.38;5190160;28;20518;-86
2022/06/10 11:19:54;;;;;;;8.98;3.67;;;;;;;25.90;48.29;101949.91;5190435;28;20030;-78
2022/06/10 11:22:27;;;;;;;13.98;3.80;;;;;;;25.19;47.31;101949.47;5194444;28;20033;-79
2022/06/10 11:25:02;;;;;;;16.13;4.65;;;;;;;24.63;48.77;101942.78;5192717;28;20027;-80
2022/06/10 11:27:37;;;;;;;17.08;4.10;;;;;;;24.71;49.19;101953.91;5192019;28;20502;-79
2022/06/10 11:30:20;;;;;;;13.93;3.40;;;;;;;25.14;49.65;101948.03;5191981;28;20061;-82
2022/06/10 11:33:02;;;;;;;9.30;3.63;;;;;;;24.98;49.33;101948.84;5192489;28;20030;-78
2022/06/10 11:35:38;;;;;;;10.25;4.50;;;;;;;24.08;50.87;101958.03;5194194;28;20030;-79
2022/06/10 11:38:21;;;;;;;10.60;3.70;;;;;;;23.97;52.17;101952.38;5194291;28;20515;-86
2022/06/10 11:40:56;;;;;;;16.30;3.60;;;;;;;24.45;50.03;101940.13;5195165;28;20031;-86
2022/06/10 11:43:29;;;;;;;9.15;3.35;;;;;;;25.31;48.52;101945.28;5194153;28;20116;-85
2022/06/10 11:46:06;;;;;;;9.75;3.90;;;;;;;25.66;48.34;101942.38;5199775;28;20041;-80
2022/06/10 11:48:57;;;;;;;9.80;3.30;;;;;;;26.90;47.88;101933.13;5205105;28;20072;-80
2022/06/10 11:51:31;;;;;;;11.73;3.17;;;;;;;27.59;42.82;101942.03;5179720;28;20505;-83
2022/06/10 11:54:09;;;;;;;10.98;3.30;;;;;;;27.34;41.27;101937.47;5190443;28;20387;-78
2022/06/10 12:00:09;;;;;;;9.13;2.97;;;;;;;27.89;40.58;101938.28;5199291;28;20046;-78
2022/06/10 12:03:19;;;;;;;7.30;2.40;;;;;;;27.58;41.66;101936.78;5198621;28;20034;-80
2022/06/10 12:06:06;;;;;;;6.72;3.20;;;;;;;26.33;44.11;101929.50;5191071;28;20034;-81
2022/06/10 12:09:00;;;;;;;10.20;2.88;;;;;;;26.01;43.71;101942.16;5194705;28;20030;-82
2022/06/10 12:11:32;;;;;;;7.57;3.30;;;;;;;25.95;45.35;101924.66;5182497;28;20135;-79
2022/06/10 12:14:16;;;;;;;;;;;;;;;27.22;41.02;101916.81;5195132;28;20097;-84
2022/06/10 12:16:55;;;;;;;7.13;2.60;;;;;;;27.18;41.27;101918.84;5193985;28;19918;-83
2022/06/10 12:19:50;;;;;;;15.85;3.80;;;;;;;27.99;40.70;101914.41;5187046;28;20519;-83
2022/06/10 12:22:22;;;;;;;10.48;3.25;;;;;;;28.33;38.93;101907.53;5191714;28;20058;-79
2022/06/10 12:24:55;;;;;;;11.73;2.90;;;;;;;28.09;38.48;101909.28;5193632;28;20057;-80
2022/06/10 12:27:36;;;;;;;10.00;2.83;;;;;;;29.97;36.82;101917.94;5192620;28;20052;-83
2022/06/10 12:30:16;;;;;;;7.47;2.60;;;;;;;31.18;33.54;101897.63;5191549;28;20030;-77